Jj Sky — VRJA6 — position and weather

sailwx.info

Track history (hours):
 
Tides and Currents Weather Stations Pressure Air Temp Water Temp Dewpoint Dewpoint Depression Visibility Wind Speed Wind Dir Waves Ship Positions

Jj Sky

Last reported at 2014-Aug-29 06:30 UTC. Time now 2014-Aug-29 18:23 UTC.
Position N 33°56' E 134°54'.

Length 148 m; draft 8.2 m.

Type: Ship. MMSI: 477397500.

Date/timePositionNaut miles runAvg speedWind from/ knotsBaromVisibWave heightAir tempDewpointWater temp
2014-Aug-29 06:30N 33°56' E 134°54'1717.9
2014-Aug-29 05:33N 34°13' E 134°58'1818.2
2014-Aug-29 04:33N 34°29' E 135°07'1211.5
2014-Aug-29 03:32N 34°39' E 135°15'0 0.0
2014-Aug-29 02:07N 34°39' E 135°15'0 0.0
2014-Aug-29 01:25N 34°39' E 135°15'0 0.0
2014-Aug-29 00:31N 34°39' E 135°15'0 0.0
2014-Aug-28 23:30N 34°39' E 135°15'0 0.0
2014-Aug-28 22:33N 34°39' E 135°15'6 6.5
2014-Aug-28 21:33N 34°38' E 135°22'2 1.6
2014-Aug-28 20:29N 34°39' E 135°24'0 0.0
2014-Aug-28 19:28N 34°39' E 135°24'0 0.0
2014-Aug-28 18:28N 34°39' E 135°24'0 0.0
2014-Aug-28 17:33N 34°39' E 135°24'0 0.0
2014-Aug-28 16:33N 34°39' E 135°24'0 0.0
2014-Aug-28 15:32N 34°39' E 135°24'0 0.0
2014-Aug-28 14:32N 34°39' E 135°24'0 0.0
2014-Aug-28 13:26N 34°39' E 135°24'0 0.0
2014-Aug-28 12:31N 34°39' E 135°24'0 0.0
2014-Aug-28 11:31N 34°39' E 135°24'0 0.0
2014-Aug-28 10:24N 34°39' E 135°24'0 0.0
2014-Aug-28 09:30N 34°39' E 135°24'0 0.0
2014-Aug-28 08:23N 34°39' E 135°24'0 0.0
2014-Aug-28 07:29N 34°39' E 135°24'0 0.0
2014-Aug-28 06:22N 34°39' E 135°24'0 0.0
2014-Aug-28 05:16N 34°39' E 135°24'0 0.0
2014-Aug-28 04:28N 34°39' E 135°24'0 0.0
2014-Aug-28 03:33N 34°39' E 135°24'0 0.0
2014-Aug-28 02:24N 34°39' E 135°24'0 0.0
2014-Aug-28 01:28N 34°39' E 135°24'0 0.0
2014-Aug-28 00:22N 34°39' E 135°24'11 3.5
2014-Aug-27 21:16N 34°32' E 135°15'2413.9
2014-Aug-27 19:33N 34°12' E 134°59'1514.2
2014-Aug-27 18:31N 33°58' E 134°55'68714.9
2014-Aug-25 20:26N 31°20' E 121°41'0 0.1
2014-Aug-25 17:19N 31°20' E 121°40'1 0.1
2014-Aug-25 04:21N 31°20' E 121°41'3511.7
2014-Aug-25 01:20N 31°03' E 122°16'9 9.9
2014-Aug-25 00:23N 31°01' E 122°27'1312.9
2014-Aug-24 23:24N 30°58' E 122°42'  
2014-Aug-21 21:28N 33°52' E 134°60'1617.2
2014-Aug-21 20:33N 34°07' E 134°59'1716.8
2014-Aug-21 19:33N 34°24' E 135°01'1717.1
2014-Aug-21 18:33N 34°37' E 135°15'3 2.3
2014-Aug-21 17:15N 34°40' E 135°14'0 0.0
2014-Aug-21 16:32N 34°40' E 135°14'0 0.0
2014-Aug-21 15:32N 34°40' E 135°14'0 0.0
2014-Aug-21 14:32N 34°40' E 135°14'0 0.0
2014-Aug-21 13:31N 34°40' E 135°14'0 0.1
2014-Aug-21 12:33N 34°40' E 135°14'7 6.8
2014-Aug-21 11:33N 34°38' E 135°23'2 1.5
2014-Aug-21 10:29N 34°39' E 135°24'0 0.0
2014-Aug-21 09:23N 34°39' E 135°24'0 0.0
2014-Aug-21 08:28N 34°39' E 135°24'0 0.0
2014-Aug-21 07:22N 34°39' E 135°24'0 0.0
2014-Aug-21 06:22N 34°39' E 135°24'0 0.0
2014-Aug-21 05:33N 34°39' E 135°24'0 0.0
2014-Aug-21 04:30N 34°39' E 135°24'0 0.0
2014-Aug-21 03:29N 34°39' E 135°24'0 0.0
2014-Aug-21 02:29N 34°39' E 135°24'0 0.0
2014-Aug-21 01:28N 34°39' E 135°24'0 0.0
2014-Aug-21 00:28N 34°39' E 135°24'0 0.0
2014-Aug-20 23:34N 34°39' E 135°24'0 0.0
2014-Aug-20 22:33N 34°39' E 135°24'6 6.2
2014-Aug-20 21:33N 34°35' E 135°19'1313.0
2014-Aug-20 20:33N 34°26' E 135°07'1413.7
2014-Aug-20 19:33N 34°14' E 134°58'1413.8
2014-Aug-20 18:33N 34°01' E 134°55'  
Track history (hours):
 
Tides and Currents Weather Stations Pressure Air Temp Water Temp Dewpoint Dewpoint Depression Visibility Wind Speed Wind Dir Waves Ship Positions

Jj Sky

Last reported at 2014-Aug-29 06:30 UTC. Time now 2014-Aug-29 18:23 UTC.
Position N 33°56' E 134°54'.

Length 148 m; draft 8.2 m.

Type: Ship. MMSI: 477397500.

Date/timePositionNaut miles runAvg speedWind from/ knotsBaromVisibWave heightAir tempDewpointWater temp
2014-Aug-29 06:30N 33°56' E 134°54'1717.9
2014-Aug-29 05:33N 34°13' E 134°58'1818.2
2014-Aug-29 04:33N 34°29' E 135°07'1211.5
2014-Aug-29 03:32N 34°39' E 135°15'0 0.0
2014-Aug-29 02:07N 34°39' E 135°15'0 0.0
2014-Aug-29 01:25N 34°39' E 135°15'0 0.0
2014-Aug-29 00:31N 34°39' E 135°15'0 0.0
2014-Aug-28 23:30N 34°39' E 135°15'0 0.0
2014-Aug-28 22:33N 34°39' E 135°15'6 6.5
2014-Aug-28 21:33N 34°38' E 135°22'2 1.6
2014-Aug-28 20:29N 34°39' E 135°24'0 0.0
2014-Aug-28 19:28N 34°39' E 135°24'0 0.0
2014-Aug-28 18:28N 34°39' E 135°24'0 0.0
2014-Aug-28 17:33N 34°39' E 135°24'0 0.0
2014-Aug-28 16:33N 34°39' E 135°24'0 0.0
2014-Aug-28 15:32N 34°39' E 135°24'0 0.0
2014-Aug-28 14:32N 34°39' E 135°24'0 0.0
2014-Aug-28 13:26N 34°39' E 135°24'0 0.0
2014-Aug-28 12:31N 34°39' E 135°24'0 0.0
2014-Aug-28 11:31N 34°39' E 135°24'0 0.0
2014-Aug-28 10:24N 34°39' E 135°24'0 0.0
2014-Aug-28 09:30N 34°39' E 135°24'0 0.0
2014-Aug-28 08:23N 34°39' E 135°24'0 0.0
2014-Aug-28 07:29N 34°39' E 135°24'0 0.0
2014-Aug-28 06:22N 34°39' E 135°24'0 0.0
2014-Aug-28 05:16N 34°39' E 135°24'0 0.0
2014-Aug-28 04:28N 34°39' E 135°24'0 0.0
2014-Aug-28 03:33N 34°39' E 135°24'0 0.0
2014-Aug-28 02:24N 34°39' E 135°24'0 0.0
2014-Aug-28 01:28N 34°39' E 135°24'0 0.0
2014-Aug-28 00:22N 34°39' E 135°24'11 3.5
2014-Aug-27 21:16N 34°32' E 135°15'2413.9
2014-Aug-27 19:33N 34°12' E 134°59'1514.2
2014-Aug-27 18:31N 33°58' E 134°55'68714.9
2014-Aug-25 20:26N 31°20' E 121°41'0 0.1
2014-Aug-25 17:19N 31°20' E 121°40'1 0.1
2014-Aug-25 04:21N 31°20' E 121°41'3511.7
2014-Aug-25 01:20N 31°03' E 122°16'9 9.9
2014-Aug-25 00:23N 31°01' E 122°27'1312.9
2014-Aug-24 23:24N 30°58' E 122°42'  
2014-Aug-21 21:28N 33°52' E 134°60'1617.2
2014-Aug-21 20:33N 34°07' E 134°59'1716.8
2014-Aug-21 19:33N 34°24' E 135°01'1717.1
2014-Aug-21 18:33N 34°37' E 135°15'3 2.3
2014-Aug-21 17:15N 34°40' E 135°14'0 0.0
2014-Aug-21 16:32N 34°40' E 135°14'0 0.0
2014-Aug-21 15:32N 34°40' E 135°14'0 0.0
2014-Aug-21 14:32N 34°40' E 135°14'0 0.0
2014-Aug-21 13:31N 34°40' E 135°14'0 0.1
2014-Aug-21 12:33N 34°40' E 135°14'7 6.8
2014-Aug-21 11:33N 34°38' E 135°23'2 1.5
2014-Aug-21 10:29N 34°39' E 135°24'0 0.0
2014-Aug-21 09:23N 34°39' E 135°24'0 0.0
2014-Aug-21 08:28N 34°39' E 135°24'0 0.0
2014-Aug-21 07:22N 34°39' E 135°24'0 0.0
2014-Aug-21 06:22N 34°39' E 135°24'0 0.0
2014-Aug-21 05:33N 34°39' E 135°24'0 0.0
2014-Aug-21 04:30N 34°39' E 135°24'0 0.0
2014-Aug-21 03:29N 34°39' E 135°24'0 0.0
2014-Aug-21 02:29N 34°39' E 135°24'0 0.0
2014-Aug-21 01:28N 34°39' E 135°24'0 0.0
2014-Aug-21 00:28N 34°39' E 135°24'0 0.0
2014-Aug-20 23:34N 34°39' E 135°24'0 0.0
2014-Aug-20 22:33N 34°39' E 135°24'6 6.2
2014-Aug-20 21:33N 34°35' E 135°19'1313.0
2014-Aug-20 20:33N 34°26' E 135°07'1413.7
2014-Aug-20 19:33N 34°14' E 134°58'1413.8
2014-Aug-20 18:33N 34°01' E 134°55'  

Dump ship's entire track history